Time;durP1;ratioP1;P1;durP2;ratioP2;P2;SDS_P1;SDS_P2;PMS_P1;PMS_P2;Temp;Humidity;BMP_temperature;BMP_pressure;BME280_temperature;BME280_humidity;BME280_pressure;Samples;Min_cycle;Max_cycle;Signal;HPM_P1;HPM_P2
2021/11/09 00:00:29;;;;;;;22.70;9.65;;;2.90;77.10;;;1.10;79.56;96843.50;5005362;28;20066;-67
2021/11/09 00:02:55;;;;;;;16.60;7.60;;;2.90;76.80;;;1.07;79.34;96845.50;5004429;28;20509;-66
2021/11/09 00:05:24;;;;;;;20.13;8.93;;;2.90;76.90;;;1.04;79.29;96846.56;5003685;28;20061;-67
2021/11/09 00:07:53;;;;;;;18.27;7.93;;;2.90;76.50;;;1.02;79.06;96850.19;4985200;28;20030;-66
2021/11/09 00:10:19;;;;;;;16.58;7.85;;;2.90;76.30;;;1.00;79.41;96839.13;4988842;28;20489;-66
2021/11/09 00:12:51;;;;;;;19.65;8.15;;;2.80;76.30;;;0.99;78.91;96840.06;4989092;28;20520;-66
2021/11/09 00:15:22;;;;;;;15.20;7.80;;;2.80;76.40;;;0.95;80.00;96847.22;4987326;28;20059;-66
2021/11/09 00:17:53;;;;;;;14.73;8.00;;;2.80;76.50;;;0.92;80.16;96839.69;5005018;28;20422;-66
2021/11/09 00:20:20;;;;;;;17.95;8.43;;;2.80;76.40;;;0.89;79.37;96845.06;4980165;28;20073;-66
2021/11/09 00:22:46;;;;;;;15.98;7.60;;;2.80;76.30;;;0.86;79.36;96840.13;4978830;28;20049;-66
2021/11/09 00:25:12;;;;;;;17.75;7.85;;;2.80;76.60;;;0.88;79.96;96836.47;4988103;28;20087;-66
2021/11/09 00:27:38;;;;;;;15.98;8.50;;;2.80;77.50;;;0.89;80.24;96842.47;4986211;28;20057;-66
2021/11/09 00:30:05;;;;;;;17.13;8.35;;;2.80;77.10;;;0.91;79.90;96844.03;5001646;28;20054;-66
2021/11/09 00:32:31;;;;;;;17.52;7.43;;;2.80;77.20;;;0.90;79.86;96842.34;4971912;28;20038;-66
2021/11/09 00:34:57;;;;;;;17.10;7.90;;;2.80;77.20;;;0.90;79.94;96844.13;4972988;28;20038;-66
2021/11/09 00:37:22;;;;;;;18.10;7.97;;;2.80;77.20;;;0.89;80.14;96848.47;4959272;28;20061;-66
2021/11/09 00:39:48;;;;;;;15.48;8.23;;;2.70;77.60;;;0.89;80.09;96847.66;4982760;28;20039;-66
2021/11/09 00:42:14;;;;;;;15.82;7.97;;;2.80;77.50;;;0.88;80.19;96857.19;4988575;28;20435;-66
2021/11/09 00:44:41;;;;;;;13.98;8.05;;;2.80;77.40;;;0.89;80.97;96860.59;4988034;28;20510;-66
2021/11/09 00:47:07;;;;;;;15.25;7.68;;;2.70;77.60;;;0.86;80.23;96846.13;5001534;28;20585;-66
2021/11/09 00:49:33;;;;;;;17.30;7.47;;;2.70;77.60;;;0.86;80.47;96853.06;5004230;28;20050;-66
2021/11/09 00:51:58;;;;;;;19.10;8.40;;;2.80;77.60;;;0.87;80.54;96846.94;4971519;28;20513;-66
2021/11/09 00:54:24;;;;;;;15.45;7.97;;;2.80;77.70;;;0.84;80.48;96850.59;4969207;28;20047;-66
2021/11/09 00:56:50;;;;;;;18.27;8.30;;;2.70;77.90;;;0.82;81.35;96851.63;4988988;28;20042;-66
2021/11/09 00:59:16;;;;;;;17.73;8.13;;;2.70;78.00;;;0.80;81.44;96848.34;4971819;28;20526;-66
2021/11/09 01:01:42;;;;;;;17.13;8.73;;;2.80;78.30;;;0.79;81.79;96849.28;4968945;28;20181;-66
2021/11/09 01:04:07;;;;;;;17.42;8.60;;;2.70;78.40;;;0.80;81.55;96853.50;5001613;28;20467;-66
2021/11/09 01:06:33;;;;;;;16.67;8.05;;;2.70;78.60;;;0.78;82.19;96847.63;4986816;28;20035;-67
2021/11/09 01:08:59;;;;;;;17.15;8.55;;;2.70;78.80;;;0.78;82.18;96851.03;4988153;28;20700;-66
2021/11/09 01:11:25;;;;;;;18.75;8.95;;;2.70;78.90;;;0.81;82.01;96856.00;5029187;23;20049;-68
2021/11/09 01:13:51;;;;;;;16.00;8.20;;;2.70;79.00;;;0.81;82.41;96853.41;4967008;28;20593;-68
2021/11/09 01:16:18;;;;;;;17.02;8.57;;;2.80;79.00;;;0.81;82.03;96849.97;4973712;28;20121;-68
2021/11/09 01:18:48;;;;;;;13.70;7.57;;;2.80;79.00;;;0.81;82.59;96842.22;4956646;28;20473;-68
2021/11/09 01:21:15;;;;;;;19.38;8.20;;;2.80;78.60;;;0.78;82.31;96842.44;4988452;28;20387;-68
2021/11/09 01:23:49;;;;;;;12.90;7.75;;;2.80;78.20;;;0.79;82.71;96837.16;4956970;28;20057;-68
2021/11/09 01:26:16;;;;;;;22.02;8.73;;;2.80;78.20;;;0.80;81.81;96843.97;4974115;28;20027;-68
2021/11/09 01:28:42;;;;;;;15.52;8.38;;;2.70;78.40;;;0.77;81.77;96833.03;4972217;28;20034;-68
2021/11/09 01:31:08;;;;;;;17.70;9.13;;;2.70;78.50;;;0.76;82.69;96836.53;4972493;28;20107;-68
2021/11/09 01:33:34;;;;;;;21.40;8.93;;;2.70;78.70;;;0.75;82.05;96824.53;4988406;28;20486;-68
2021/11/09 01:36:00;;;;;;;16.05;8.18;;;2.70;78.70;;;0.74;82.20;96825.47;4989151;28;20054;-68
2021/11/09 01:38:26;;;;;;;18.98;8.35;;;2.70;78.30;;;0.76;82.44;96821.00;4972401;28;20053;-68
2021/11/09 01:40:52;;;;;;;18.48;8.52;;;2.70;78.20;;;0.77;82.36;96827.84;4969350;28;20039;-68
2021/11/09 01:43:19;;;;;;;21.40;8.48;;;2.70;78.30;;;0.75;82.15;96833.13;4983203;28;20038;-68
2021/11/09 01:45:44;;;;;;;19.60;8.68;;;2.70;78.60;;;0.75;82.69;96838.31;4956091;28;20031;-68
2021/11/09 01:48:10;;;;;;;21.45;9.45;;;2.70;78.80;;;0.70;82.75;96834.41;4988680;28;20117;-68
2021/11/09 01:50:43;;;;;;;18.50;9.93;;;2.70;78.60;;;0.69;82.94;96838.75;4987857;28;20046;-68
2021/11/09 01:53:08;;;;;;;18.33;9.48;;;2.70;78.70;;;0.68;82.81;96849.19;4972112;28;20038;-68
2021/11/09 01:55:35;;;;;;;23.52;10.02;;;2.70;79.00;;;0.68;82.94;96844.03;4972169;28;20487;-68
2021/11/09 01:58:01;;;;;;;15.82;8.63;;;2.70;79.20;;;0.68;82.87;96839.69;4988438;28;20031;-68
2021/11/09 02:00:42;;;;;;;21.77;10.30;;;2.60;79.20;;;0.70;84.18;96837.81;4989334;28;20565;-68
2021/11/09 02:03:08;;;;;;;;;;;2.70;79.10;;;0.69;85.95;96830.16;4993099;28;20089;-68
2021/11/09 02:05:33;;;;;;;18.38;9.15;;;2.70;79.10;;;0.67;83.69;96832.84;4973040;28;19924;-68
2021/11/09 02:08:02;;;;;;;18.55;9.60;;;2.70;79.20;;;0.69;83.93;96825.00;4975749;28;20030;-68
2021/11/09 02:10:32;;;;;;;21.17;10.27;;;2.70;79.60;;;0.68;84.34;96833.66;4974813;28;20506;-68
2021/11/09 02:12:58;;;;;;;16.38;9.63;;;2.70;79.80;;;0.68;83.52;96833.66;4976022;28;20030;-68
2021/11/09 02:15:26;;;;;;;17.85;9.25;;;2.70;79.70;;;0.66;83.47;96825.19;4990895;28;20171;-68
2021/11/09 02:17:51;;;;;;;19.40;9.73;;;2.70;79.40;;;0.71;83.74;96833.47;4992019;28;20079;-68
2021/11/09 02:20:19;;;;;;;20.45;10.00;;;2.70;79.40;;;0.67;83.52;96826.84;4974409;28;20700;-68
2021/11/09 02:22:45;;;;;;;18.02;8.93;;;2.70;79.30;;;0.70;83.21;96837.81;4974467;28;20471;-68
2021/11/09 02:25:12;;;;;;;18.65;9.30;;;2.70;79.30;;;0.70;83.26;96839.59;4992566;28;20038;-68
2021/11/09 02:27:39;;;;;;;17.58;9.15;;;2.70;79.00;;;0.67;82.73;96838.00;4975587;28;20738;-68
2021/11/09 02:30:06;;;;;;;18.30;9.55;;;2.60;79.00;;;0.67;83.87;96842.38;4975028;28;20038;-68
2021/11/09 02:32:31;;;;;;;18.33;9.20;;;2.60;79.10;;;0.62;83.41;96847.88;4991154;28;20031;-68
2021/11/09 02:34:57;;;;;;;17.63;9.25;;;2.60;78.90;;;0.64;83.19;96847.75;4991694;28;20061;-68
2021/11/09 02:37:23;;;;;;;15.85;8.50;;;2.60;78.80;;;0.63;83.61;96852.13;4974456;28;20132;-68
2021/11/09 02:39:49;;;;;;;14.10;8.98;;;2.60;78.10;;;0.59;82.61;96861.88;4991607;28;20062;-68
2021/11/09 02:42:16;;;;;;;17.33;8.60;;;2.50;78.00;;;0.57;81.95;96865.50;4991043;28;20504;-68
2021/11/09 02:44:56;;;;;;;19.08;8.48;;;2.40;77.70;;;0.52;82.76;96873.59;4975706;28;20041;-68
2021/11/09 02:47:25;;;;;;;14.30;8.05;;;2.40;77.80;;;0.49;82.60;96871.22;4974842;28;20038;-68
2021/11/09 02:49:58;;;;;;;19.20;8.65;;;2.40;77.50;;;0.44;82.19;96857.75;4992392;28;20042;-68
2021/11/09 02:52:26;;;;;;;17.35;8.45;;;2.40;77.50;;;0.42;82.30;96854.47;4974887;28;20112;-68
2021/11/09 02:54:58;;;;;;;13.82;8.73;;;2.30;77.70;;;0.37;82.47;96855.72;4986410;28;20045;-68
2021/11/09 02:57:33;;;;;;;16.42;8.65;;;2.30;77.80;;;0.35;82.09;96853.25;5006043;28;20067;-68
2021/11/09 03:00:18;;;;;;;16.42;8.70;;;2.30;77.90;;;0.32;82.43;96860.41;4993913;28;20477;-68
2021/11/09 03:02:55;;;;;;;13.27;8.40;;;2.30;77.90;;;0.27;82.55;96855.56;4964112;28;20066;-68
2021/11/09 03:05:44;;;;;;;14.65;8.38;;;2.30;78.00;;;0.27;82.08;96855.56;4990403;28;20038;-68
2021/11/09 03:08:32;;;;;;;13.77;8.23;;;2.30;78.30;;;0.25;83.28;96852.25;4977888;28;20103;-68
2021/11/09 03:11:00;;;;;;;17.85;9.15;;;2.20;78.50;;;0.27;82.22;96860.72;4957553;28;20720;-68
2021/11/09 03:13:26;;;;;;;14.10;8.60;;;2.20;78.50;;;0.28;83.41;96857.22;4987312;28;20055;-68
2021/11/09 03:15:55;;;;;;;18.83;9.90;;;2.20;78.90;;;0.27;83.12;96853.78;4959018;28;20033;-68
2021/11/09 03:18:24;;;;;;;17.40;9.05;;;2.30;79.20;;;0.27;83.49;96860.72;4989839;28;20186;-68
2021/11/09 03:45:06;;;;;;;16.85;9.57;;;2.20;79.50;;;0.23;83.39;96872.22;4975531;28;20037;-67
2021/11/09 03:47:37;;;;;;;19.50;9.30;;;2.20;79.20;;;0.20;83.65;96875.00;4989496;28;20033;-70
2021/11/09 03:50:05;;;;;;;18.63;9.20;;;2.20;78.90;;;0.17;83.95;96862.28;4972532;28;20030;-66
2021/11/09 03:52:39;;;;;;;14.88;9.30;;;2.20;78.90;;;0.18;83.73;96871.69;4971297;28;20140;-65
2021/11/09 03:55:05;;;;;;;15.40;9.50;;;2.20;78.90;;;0.20;83.27;96877.59;4983930;28;20031;-69
2021/11/09 03:57:35;;;;;;;15.15;8.68;;;2.20;78.90;;;0.16;83.89;96870.97;4971675;28;20045;-69
2021/11/09 04:02:53;;;;;;;75.10;42.53;;;2.20;79.20;;;0.14;83.97;96875.44;4973205;28;20039;-69
2021/11/09 04:05:22;;;;;;;81.80;44.65;;;2.20;79.60;;;0.16;84.92;96873.56;4985374;28;20038;-69
2021/11/09 04:21:33;;;;;;;48.03;29.60;;;2.10;79.10;;;0.13;83.91;96873.78;4975499;28;20125;-69
2021/11/09 04:26:58;;;;;;;27.38;17.63;;;2.10;78.80;;;0.10;84.13;96885.16;4990456;28;20462;-69
2021/11/09 04:29:37;;;;;;;33.97;21.48;;;2.10;78.70;;;0.05;83.71;96863.97;4988532;28;20038;-70
2021/11/09 04:32:24;;;;;;;43.00;27.85;;;2.10;78.90;;;0.07;83.76;96875.03;4975129;28;20033;-70
2021/11/09 04:35:18;;;;;;;86.68;53.03;;;2.20;78.70;;;0.06;84.11;96877.72;4975932;28;20031;-71
2021/11/09 05:01:06;;;;;;;18.17;11.50;;;2.20;79.80;;;0.10;84.42;96897.28;4974527;28;20045;-66
2021/11/09 05:02:50;;;;;;;25.50;12.88;;;2.20;81.00;;;0.13;85.99;96891.88;5009086;28;20057;-65
2021/11/09 05:10:26;;;;;;;19.50;11.95;;;2.20;81.80;;;0.18;86.31;96894.97;4988787;28;20057;-65
2021/11/09 05:12:51;;;;;;;22.80;12.02;;;2.30;81.70;;;0.20;86.67;96890.53;5005361;28;20034;-65
2021/11/09 05:15:17;;;;;;;20.42;11.82;;;2.20;81.70;;;0.19;87.01;96891.47;4972671;28;20034;-64
2021/11/09 05:17:43;;;;;;;25.73;12.55;;;2.20;81.90;;;0.21;87.01;96890.41;5004148;28;20034;-66
2021/11/09 05:20:09;;;;;;;24.63;13.63;;;2.30;82.10;;;0.23;87.67;96893.75;4995649;28;20455;-65
2021/11/09 05:22:35;;;;;;;32.03;14.32;;;2.40;82.40;;;0.25;87.88;96901.41;4973000;28;20168;-65
2021/11/09 05:25:01;;;;;;;25.70;13.65;;;2.30;82.50;;;0.27;87.58;96902.97;4989287;28;20125;-65
2021/11/09 05:27:28;;;;;;;25.80;13.48;;;2.40;82.40;;;0.30;87.21;96907.09;4988586;28;20035;-65
2021/11/09 05:29:54;;;;;;;21.05;12.98;;;2.40;81.90;;;0.31;87.63;96900.97;4972814;28;20121;-65
2021/11/09 05:32:20;;;;;;;23.23;12.07;;;2.40;81.40;;;0.29;87.57;96901.09;4972834;28;20472;-65
2021/11/09 05:34:47;;;;;;;27.42;12.93;;;2.40;81.10;;;0.28;87.14;96898.59;5005637;28;20030;-65
2021/11/09 05:37:14;;;;;;;25.95;13.10;;;2.30;81.30;;;0.25;87.24;96896.22;4990675;28;20058;-65
2021/11/09 05:42:09;;;;;;;24.83;13.32;;;2.30;81.30;;;0.20;87.56;96893.94;5007351;28;20446;-66
2021/11/09 05:44:35;;;;;;;22.42;13.50;;;2.30;81.50;;;0.21;87.07;96887.00;5012116;28;20056;-66
2021/11/09 05:47:00;;;;;;;22.70;13.10;;;2.30;81.30;;;0.21;87.07;96887.00;4993056;28;20376;-66
2021/11/09 05:49:27;;;;;;;23.52;13.20;;;2.30;81.10;;;0.20;87.28;96891.34;4994729;28;21093;-66
2021/11/09 05:51:53;;;;;;;39.42;21.50;;;2.20;80.90;;;0.12;86.90;96893.66;4980095;28;20029;-66
2021/11/09 05:54:18;;;;;;;46.25;24.27;;;2.10;80.80;;;0.09;87.17;96898.22;4976498;28;20026;-66
2021/11/09 05:56:44;;;;;;;33.70;19.80;;;2.10;80.60;;;0.05;87.27;96902.78;4994197;28;20398;-66
2021/11/09 05:59:10;;;;;;;34.38;17.92;;;2.10;80.50;;;0.01;87.25;96900.50;5003243;28;20049;-66
2021/11/09 06:01:36;;;;;;;48.85;20.08;;;2.00;80.50;;;-0.02;86.92;96909.28;4992454;28;20057;-66
2021/11/09 06:04:01;;;;;;;35.33;18.77;;;2.00;80.40;;;-0.06;86.52;96905.25;4992680;28;20073;-65
2021/11/09 06:06:27;;;;;;;44.30;12.27;;;2.00;80.60;;;-0.09;87.11;96901.09;4976210;28;20465;-65
2021/11/09 06:08:53;;;;;;;60.25;13.88;;;2.00;80.90;;;-0.11;86.57;96902.97;4959923;28;20630;-65
2021/11/09 06:11:19;;;;;;;30.80;12.25;;;1.90;80.50;;;-0.15;86.73;96908.47;4991500;28;20026;-65
2021/11/09 06:13:45;;;;;;;27.48;12.02;;;1.80;80.80;;;-0.21;86.96;96907.13;4976413;28;20457;-65
2021/11/09 06:16:11;;;;;;;24.20;12.15;;;1.70;80.80;;;-0.25;87.03;96899.66;4976379;28;20459;-65
2021/11/09 06:18:36;;;;;;;28.23;13.38;;;1.70;81.10;;;-0.29;87.49;96905.97;4976030;28;20030;-67
2021/11/09 06:21:02;;;;;;;32.15;12.80;;;1.70;81.20;;;-0.33;87.56;96907.94;4975182;28;20030;-65
2021/11/09 06:23:28;;;;;;;35.50;12.93;;;1.70;81.20;;;-0.36;87.20;96908.13;4991693;28;20481;-64
2021/11/09 06:25:54;;;;;;;25.25;12.43;;;1.70;81.30;;;-0.37;87.20;96906.47;4960216;28;20423;-65
2021/11/09 06:28:20;;;;;;;21.33;13.10;;;1.70;81.20;;;-0.33;87.43;96918.25;4975752;28;20377;-65
2021/11/09 06:30:48;;;;;;;60.85;30.00;;;1.80;81.10;;;-0.31;87.81;96921.56;4975565;28;20065;-64
2021/11/09 06:33:14;;;;;;;32.97;20.55;;;1.80;81.00;;;-0.29;87.87;96932.63;4992860;28;20109;-64
2021/11/09 06:35:40;;;;;;;24.33;13.35;;;1.80;81.50;;;-0.25;87.87;96931.50;4991971;28;20508;-65
2021/11/09 06:38:06;;;;;;;21.70;12.85;;;1.90;81.20;;;-0.24;87.91;96933.16;4975680;28;20112;-65
2021/11/09 06:40:32;;;;;;;25.02;13.00;;;1.90;81.10;;;-0.18;88.54;96937.09;4992681;28;20429;-65
2021/11/09 06:42:58;;;;;;;27.02;12.05;;;2.00;81.80;;;-0.13;88.76;96943.63;4991197;28;20463;-64
2021/11/09 06:45:24;;;;;;;22.30;14.02;;;2.10;81.90;;;-0.05;88.83;96945.69;4992589;28;20413;-65
2021/11/09 06:47:51;;;;;;;25.33;13.23;;;2.20;81.90;;;0.05;89.05;96959.69;4990670;28;20018;-66
2021/11/09 06:50:18;;;;;;;31.35;14.02;;;2.40;82.30;;;0.13;89.01;96956.56;5007238;28;20418;-64
2021/11/09 06:52:44;;;;;;;22.77;13.57;;;2.40;81.90;;;0.18;89.24;96959.66;5008035;28;20058;-64
2021/11/09 06:55:09;;;;;;;24.67;13.32;;;2.60;81.90;;;0.25;88.91;96950.56;4991189;28;20053;-65
2021/11/09 06:57:35;;;;;;;35.10;19.75;;;2.60;81.30;;;0.32;89.31;96959.56;4991575;28;20078;-65
2021/11/09 07:00:05;;;;;;;31.38;18.95;;;2.70;81.80;;;0.38;89.41;96956.53;4991154;28;20037;-65
2021/11/09 07:02:33;;;;;;;32.67;19.60;;;2.80;81.60;;;0.46;89.86;96956.88;5007032;28;20572;-65
2021/11/09 07:04:59;;;;;;;22.58;14.55;;;3.00;81.50;;;0.53;89.83;96963.25;5007806;28;20114;-65
2021/11/09 07:07:24;;;;;;;20.95;13.00;;;3.00;80.90;;;0.67;89.21;96977.00;4974724;28;20494;-65
2021/11/09 07:09:51;;;;;;;19.05;12.10;;;3.10;81.20;;;0.78;90.39;96969.31;4991268;28;20077;-66
2021/11/09 07:12:17;;;;;;;20.80;11.95;;;3.30;80.80;;;0.83;89.32;96972.41;5007384;28;20096;-66
2021/11/09 07:14:42;;;;;;;22.98;15.60;;;3.30;80.00;;;0.89;89.66;96967.63;4975414;28;20034;-66
2021/11/09 07:17:09;;;;;;;26.80;14.85;;;3.40;79.60;;;0.95;88.76;96963.81;4990969;28;20070;-65
2021/11/09 07:19:36;;;;;;;28.40;15.82;;;3.40;79.10;;;1.01;89.07;96981.50;4974964;28;20532;-66
2021/11/09 07:22:03;;;;;;;19.00;12.68;;;3.60;78.80;;;1.06;88.50;96971.63;4991176;28;20449;-66
2021/11/09 07:24:30;;;;;;;24.40;15.57;;;3.60;78.30;;;1.13;88.43;96978.03;4959143;28;20030;-66
2021/11/09 07:26:57;;;;;;;35.80;22.02;;;3.80;77.90;;;1.20;88.46;96981.84;4991359;28;20041;-66
2021/11/09 07:29:23;;;;;;;23.15;13.80;;;3.80;77.50;;;1.28;87.86;96975.28;4991417;28;20039;-66
2021/11/09 07:31:50;;;;;;;17.27;12.25;;;3.90;77.30;;;1.33;87.49;96970.59;4974818;28;20431;-65
2021/11/09 07:34:16;;;;;;;18.95;12.27;;;4.10;77.20;;;1.40;87.86;96971.81;4991081;28;20030;-66
2021/11/09 07:36:41;;;;;;;17.42;12.02;;;4.10;77.10;;;1.46;87.70;96971.38;4974691;28;20034;-66
2021/11/09 07:39:07;;;;;;;21.83;13.27;;;4.10;77.10;;;1.52;87.77;96973.50;4990739;28;20027;-65
2021/11/09 07:41:33;;;;;;;20.13;12.23;;;4.30;76.90;;;1.64;87.67;96975.22;4974237;28;20061;-66
2021/11/09 07:44:02;;;;;;;19.30;13.43;;;4.40;76.70;;;1.72;87.49;96972.88;5007184;28;20074;-66
2021/11/09 07:46:29;;;;;;;30.95;13.48;;;4.50;76.40;;;1.83;87.13;96969.50;4974079;28;20034;-65
2021/11/09 07:48:55;;;;;;;21.30;12.85;;;4.60;76.00;;;1.91;87.26;96971.53;4974691;28;20609;-66
2021/11/09 07:51:22;;;;;;;26.65;13.93;;;4.70;75.70;;;1.96;87.15;96974.59;4991325;28;20121;-66
2021/11/09 07:53:49;;;;;;;21.00;13.55;;;4.70;75.70;;;2.07;87.08;96967.69;4990860;28;20058;-66
2021/11/09 07:56:20;;;;;;;18.52;13.68;;;4.80;75.40;;;2.14;86.73;96968.03;4990674;28;20022;-66
2021/11/09 07:59:12;;;;;;;20.63;13.15;;;5.00;75.00;;;2.24;86.84;96970.75;4990169;28;20027;-66
2021/11/09 08:01:48;;;;;;;21.52;13.32;;;5.10;75.00;;;2.34;86.78;96969.94;4990052;28;20088;-66
2021/11/09 08:04:22;;;;;;;22.73;14.18;;;5.10;74.60;;;2.42;86.32;96972.78;4990224;28;20042;-65
2021/11/09 08:06:52;;;;;;;17.83;13.50;;;5.20;74.50;;;2.50;86.27;96968.78;4992039;28;20065;-66
2021/11/09 08:09:22;;;;;;;23.67;14.40;;;5.30;74.00;;;2.59;85.98;96968.06;4981232;28;20081;-66
2021/11/09 08:11:48;;;;;;;19.55;13.38;;;5.40;73.60;;;2.68;85.88;96956.94;4990361;28;20103;-66
2021/11/09 08:14:14;;;;;;;22.52;13.95;;;5.60;73.30;;;2.78;85.90;96957.09;4990182;28;20030;-66
2021/11/09 08:16:40;;;;;;;21.27;14.38;;;5.80;72.70;;;2.89;85.60;96955.28;4991438;28;20129;-66
2021/11/09 08:19:06;;;;;;;20.65;15.00;;;6.00;72.30;;;3.01;85.20;96956.94;4990026;28;20114;-66
2021/11/09 08:21:33;;;;;;;21.67;14.35;;;6.10;71.70;;;3.06;84.87;96941.78;4989395;28;20061;-65
2021/11/09 08:23:59;;;;;;;19.48;14.15;;;6.40;70.60;;;3.28;85.02;96951.31;4989563;28;20442;-66
2021/11/09 08:26:25;;;;;;;25.60;14.95;;;6.60;69.80;;;3.44;84.78;96950.91;4990003;28;20035;-66
2021/11/09 08:28:53;;;;;;;20.90;14.77;;;7.00;68.90;;;3.60;84.41;96947.88;4973604;28;20031;-66
2021/11/09 08:31:20;;;;;;;23.67;15.57;;;7.30;67.70;;;3.77;84.02;96951.69;4957949;28;20041;-66
2021/11/09 08:33:46;;;;;;;21.10;15.73;;;7.70;66.40;;;4.01;83.45;96954.88;4958223;28;20030;-66
2021/11/09 08:36:16;;;;;;;21.95;15.30;;;8.10;65.30;;;4.16;83.01;96948.41;4957440;28;20027;-66
2021/11/09 08:38:42;;;;;;;22.13;16.00;;;8.30;64.30;;;4.41;82.67;96946.34;4989753;28;20502;-66
2021/11/09 08:41:09;;;;;;;18.77;16.00;;;8.70;63.70;;;4.58;82.50;96954.38;4957376;28;20085;-66
2021/11/09 08:43:38;;;;;;;20.65;15.25;;;9.00;62.70;;;4.80;82.16;96952.53;4989287;28;20027;-64
2021/11/09 08:46:15;;;;;;;20.83;15.15;;;9.30;61.50;;;5.00;81.70;96956.88;4989709;28;20032;-64
2021/11/09 08:48:44;;;;;;;23.25;14.45;;;9.60;60.30;;;5.17;80.59;96956.19;4974701;28;20034;-64
2021/11/09 08:51:11;;;;;;;19.75;14.00;;;9.80;59.10;;;5.36;80.36;96955.41;4988721;28;20050;-66
2021/11/09 08:53:52;;;;;;;23.20;14.40;;;10.10;58.40;;;5.54;79.30;96959.00;4957799;28;20066;-66
2021/11/09 09:04:12;;;;;;;18.67;11.65;;;11.50;54.60;;;6.18;78.23;96956.81;4989842;28;20022;-66
2021/11/09 09:06:38;;;;;;;15.32;11.60;;;11.70;53.60;;;6.35;77.69;96963.94;4974227;28;20096;-66
2021/11/09 09:09:04;;;;;;;20.70;11.57;;;12.20;52.60;;;6.53;77.07;96956.16;4989357;28;20035;-67
2021/11/09 09:11:31;;;;;;;15.35;10.88;;;12.80;51.30;;;6.71;77.23;96957.88;4971862;28;20123;-66
2021/11/09 09:13:57;;;;;;;17.35;11.02;;;13.20;50.10;;;6.83;77.29;96957.69;4990907;28;20060;-66
2021/11/09 09:16:24;;;;;;;18.98;11.02;;;13.10;49.90;;;6.94;76.75;96962.72;4990573;28;20485;-66
2021/11/09 09:18:50;;;;;;;15.15;11.27;;;12.50;51.20;;;7.03;76.21;96965.31;4990446;28;20037;-66
2021/11/09 09:21:23;;;;;;;20.90;13.38;;;11.90;52.90;;;7.10;75.58;96960.31;4990004;28;20454;-66
2021/11/09 09:23:53;;;;;;;23.48;15.90;;;11.50;54.30;;;7.11;75.08;96967.19;4990851;28;20029;-66
2021/11/09 09:31:55;;;;;;;28.13;18.98;;;10.20;57.40;;;6.94;73.22;96967.97;4988974;28;20081;-66
2021/11/09 09:54:06;;;;;;;26.08;18.30;;;10.40;57.90;;;6.93;73.19;96982.84;4989662;28;20488;-66
2021/11/09 09:56:46;;;;;;;31.70;17.45;;;10.60;57.20;;;7.00;72.78;96977.84;4989161;28;20026;-66
2021/11/09 09:59:12;;;;;;;26.10;16.30;;;10.70;57.00;;;7.09;73.09;96976.16;4989622;28;20400;-66
2021/11/09 10:01:42;;;;;;;21.65;16.75;;;10.80;57.20;;;7.18;72.15;96978.72;5004546;28;20042;-66
2021/11/09 10:04:28;;;;;;;19.48;15.10;;;10.90;56.70;;;7.29;71.28;96980.31;4988977;28;20470;-66
2021/11/09 10:06:54;;;;;;;23.70;14.88;;;11.00;56.50;;;7.41;71.91;96975.69;4960930;28;20042;-64
2021/11/09 10:09:52;;;;;;;21.70;13.32;;;11.10;56.60;;;7.50;70.76;96966.97;4969921;28;20118;-64
2021/11/09 10:12:34;;;;;;;21.10;13.63;;;11.10;56.00;;;7.61;71.61;96966.72;4942025;28;20042;-65
2021/11/09 10:15:18;;;;;;;24.05;12.63;;;11.30;55.90;;;7.73;70.81;96969.97;4985116;28;20027;-64
2021/11/09 10:17:47;;;;;;;19.63;13.05;;;11.70;55.20;;;7.84;71.70;96965.31;4984698;28;20109;-65
2021/11/09 10:20:22;;;;;;;24.42;12.70;;;12.20;54.10;;;8.06;71.18;96960.56;4956828;28;20034;-65
2021/11/09 10:22:56;;;;;;;17.98;12.05;;;12.70;53.00;;;8.33;70.09;96960.44;4990238;28;20469;-65
2021/11/09 10:25:22;;;;;;;17.13;11.55;;;13.30;51.60;;;8.58;71.39;96962.28;4991917;28;20037;-64
2021/11/09 10:27:50;;;;;;;17.10;10.98;;;14.30;49.60;;;8.87;71.13;96963.75;4992431;28;20363;-65
2021/11/09 10:30:25;;;;;;;19.15;11.23;;;15.30;46.10;;;9.12;69.06;96956.81;4991689;28;20152;-65
2021/11/09 10:32:51;;;;;;;19.27;10.05;;;16.30;43.80;;;9.40;71.25;96954.75;4995131;28;20031;-65
2021/11/09 10:35:17;;;;;;;12.75;9.15;;;16.20;42.50;;;9.60;69.10;96945.59;4994415;28;20046;-65
2021/11/09 10:37:54;;;;;;;13.07;7.82;;;15.80;43.30;;;9.70;65.98;96941.00;4979989;28;20056;-65
2021/11/09 10:40:23;;;;;;;14.07;9.13;;;14.80;44.50;;;9.77;67.75;96936.75;4996145;28;20031;-65
2021/11/09 10:42:52;;;;;;;12.82;8.77;;;14.50;46.10;;;9.86;65.93;96944.63;5010054;28;20093;-65
2021/11/09 10:45:22;;;;;;;15.55;8.68;;;14.10;47.00;;;9.87;63.98;96941.84;4991376;28;20113;-65
2021/11/09 10:47:53;;;;;;;17.45;9.63;;;13.80;46.80;;;9.88;63.77;96937.41;4992155;28;20397;-66
2021/11/09 10:50:35;;;;;;;17.58;9.70;;;13.70;47.60;;;9.81;63.95;96938.06;4968924;28;20129;-65
2021/11/09 10:53:10;;;;;;;13.70;7.82;;;13.40;48.30;;;9.89;63.09;96945.13;5007422;28;20035;-64
2021/11/09 10:55:50;;;;;;;14.90;7.72;;;13.90;47.20;;;10.03;63.92;96935.78;5007485;28;20044;-64
2021/11/09 11:03:54;;;;;;;13.73;7.45;;;14.90;44.20;;;10.61;62.22;96942.63;4995098;28;20416;-65
2021/11/09 11:06:34;;;;;;;10.73;6.45;;;15.30;43.70;;;10.79;60.66;96947.66;4995830;28;20034;-64
2021/11/09 11:09:12;;;;;;;13.40;7.05;;;16.10;41.70;;;10.97;59.19;96935.94;4980159;28;20038;-65
2021/11/09 11:11:41;;;;;;;11.20;6.10;;;17.00;39.80;;;11.17;59.58;96936.34;4996147;28;20042;-65
2021/11/09 11:14:12;;;;;;;10.85;6.63;;;17.60;38.00;;;11.38;60.31;96932.28;4995894;28;20030;-65
2021/11/09 11:16:45;;;;;;;;;;;17.80;38.00;;;11.56;58.11;96925.75;4992573;28;20038;-66
2021/11/09 11:19:18;;;;;;;11.38;6.05;;;18.60;36.60;;;11.92;57.59;96926.00;4991746;28;19917;-64
2021/11/09 11:21:44;;;;;;;15.55;6.53;;;19.80;33.50;;;12.29;59.83;96915.66;4991293;28;20037;-65
2021/11/09 11:24:10;;;;;;;14.15;7.28;;;21.20;31.40;;;12.80;59.46;96920.06;4992765;28;20178;-65
2021/11/09 11:26:38;;;;;;;9.88;5.47;;;22.90;28.70;;;13.42;58.69;96910.88;4992332;28;20026;-65
2021/11/09 11:29:04;;;;;;;10.20;6.25;;;24.80;26.90;;;14.13;59.40;96911.78;4990944;28;20501;-66
2021/11/09 11:31:30;;;;;;;8.68;6.05;;;26.30;24.80;;;14.88;58.76;96912.91;4958514;28;20529;-66
2021/11/09 11:33:56;;;;;;;8.18;4.60;;;27.60;23.30;;;15.78;57.86;96911.84;4974482;28;20026;-66
2021/11/09 11:36:21;;;;;;;10.13;5.03;;;29.20;21.60;;;16.49;57.04;96899.59;4974918;28;20045;-66
2021/11/09 11:38:49;;;;;;;9.85;4.68;;;30.10;20.50;;;17.11;56.06;96892.94;4974594;28;20062;-66
2021/11/09 11:41:15;;;;;;;10.93;4.43;;;30.50;19.50;;;17.67;55.14;96889.63;4974299;28;20050;-66
2021/11/09 11:43:47;;;;;;;7.43;4.22;;;31.00;19.10;;;18.23;46.76;96875.50;4959031;28;20057;-66
2021/11/09 11:46:39;;;;;;;19.55;4.90;;;31.50;18.30;;;18.93;42.85;96875.25;4992212;28;20023;-66
2021/11/09 11:49:35;;;;;;;12.70;4.50;;;32.10;18.40;;;19.46;44.07;96880.75;4990964;28;20041;-66
2021/11/09 11:52:04;;;;;;;12.50;4.53;;;32.40;18.00;;;20.00;48.39;96876.28;4990267;28;20506;-66
2021/11/09 11:54:45;;;;;;;9.63;4.90;;;32.90;17.50;;;20.44;40.79;96868.81;4974907;28;20034;-66
2021/11/09 11:57:26;;;;;;;7.50;4.20;;;33.30;17.20;;;20.78;39.26;96872.50;4990518;28;20022;-66
2021/11/09 11:59:51;;;;;;;9.73;4.50;;;33.30;16.90;;;21.44;46.56;96865.06;4990318;28;20045;-66
2021/11/09 12:02:37;;;;;;;10.20;4.72;;;34.50;16.20;;;21.82;37.59;96851.84;4990581;28;20030;-67
2021/11/09 12:05:05;;;;;;;10.65;4.90;;;34.40;16.20;;;22.00;42.85;96854.28;4974499;28;20037;-67
2021/11/09 12:07:54;;;;;;;8.23;4.32;;;34.60;16.00;;;22.43;36.04;96850.19;4982019;28;20525;-67
2021/11/09 12:10:20;;;;;;;9.10;4.50;;;35.20;15.80;;;22.90;43.12;96863.19;4998149;28;20132;-67
2021/11/09 12:13:04;;;;;;;15.60;4.07;;;35.50;15.40;;;23.29;34.30;96849.69;4991461;28;20529;-67
2021/11/09 12:15:49;;;;;;;13.15;4.65;;;35.50;15.00;;;23.56;34.39;96855.97;4973722;28;20042;-67
2021/11/09 12:18:34;;;;;;;10.18;4.45;;;35.50;15.10;;;23.48;32.42;96854.50;4991506;28;20062;-67
2021/11/09 12:21:02;;;;;;;9.00;4.07;;;35.30;15.10;;;23.41;36.61;96855.75;4991128;28;20069;-67